logo dgac
Lunes 20 de Mayo del 2019
Buscar por aerodromo o helipuerto
Ingrese nombre de aeródromo, localidad o designador OACI:
TAF: TAF SCIR 201020Z 2012/2024 16020KT 9999 FEW020 SCT040 TX16/2018Z TN13/2012Z BECMG 2018/2020 19015KT
TAF del 20/05/2019 a las 10:20 UTC
Período de validez: desde el 20 a las 12:00 UTC hasta el 20 a las 24:00 UTC
Viento: dirección 160 grados, velocidad 20 nudos
Visibilidad: 10 km o más
Nubes: Escasa nubosidad a 2000 pies sobre el nivel del aeródromo
Nubes: Nubosidad parcial a 4000 pies sobre el nivel del aeródromo
Temperatura máxima: 16ºC el 20 a las 18:00 UTC
Temperatura mínima: 13ºC el 20 a las 12:00 UTC
Se espera un cambio entre las 18:00 UTC del 20 y las 20:00 UTC del 20, :
Viento: dirección 190 grados, velocidad 15 nudos